Terminal Aerodrome Forecast
Issued by NWS

Home | Current Version | Previous Version | Text Only | Print | Product List | Glossary On
Versions: 1 2 3 4 5 6 7 8 9 10 11 12 13 14 15 16 17 18 19 20 21 22 23 24 25 26 27 28 29 30 31 32 33 34 35 36 37
000
FTUS45 KGJT 262326
TAFDRO
TAF
KDRO 262326Z 2700/2724 24008KT P6SM VCSH SCT030 BKN060
      TEMPO 2700/2702 24015G25KT 4SM -SHSN BR BKN030
     FM270200 23007KT P6SM VCSH OVC060
     FM270600 02004KT P6SM SCT060 BKN080
     FM271100 VRB03KT 5SM BR BKN020 OVC040
     FM271600 VRB03KT P6SM VCFG SCT020 BKN060
     FM271800 14004KT P6SM SCT060 BKN140=

USA.gov is the U.S. government's official web portal to all federal, state and local government web resources and services.